createdAt,value
2019-02-12T00:00:24.977Z,5.00
2019-02-12T00:02:53.374Z,3.90
2019-02-12T00:05:21.830Z,3.70
2019-02-12T00:07:50.232Z,3.87
2019-02-12T00:10:18.657Z,4.77
2019-02-12T00:12:47.062Z,4.27
2019-02-12T00:15:15.501Z,3.57
2019-02-12T00:17:43.918Z,5.47
2019-02-12T00:20:12.386Z,12.70
2019-02-12T00:22:40.788Z,11.87
2019-02-12T00:25:09.295Z,17.37
2019-02-12T00:27:37.697Z,7.70
2019-02-12T00:30:10.711Z,8.73
2019-02-12T00:32:39.113Z,6.10
2019-02-12T00:35:07.818Z,7.37
2019-02-12T00:37:36.229Z,4.80
2019-02-12T00:40:06.787Z,4.47
2019-02-12T00:42:35.185Z,4.53
2019-02-12T00:45:04.362Z,5.07
2019-02-12T00:47:32.778Z,5.93
2019-02-12T00:50:01.210Z,4.53
2019-02-12T00:52:29.619Z,5.70
2019-02-12T00:54:58.065Z,6.80
2019-02-12T00:57:26.492Z,6.10
2019-02-12T00:59:54.935Z,6.67
2019-02-12T01:02:23.361Z,5.63
2019-02-12T01:04:51.777Z,5.07
2019-02-12T01:07:20.200Z,5.90
2019-02-12T01:09:48.904Z,5.13
2019-02-12T01:12:17.339Z,5.90
2019-02-12T01:14:45.758Z,5.47
2019-02-12T01:17:14.267Z,5.60
2019-02-12T01:19:42.660Z,5.90
2019-02-12T01:22:11.158Z,5.77
2019-02-12T01:24:39.578Z,5.87
2019-02-12T01:27:08.002Z,5.77
2019-02-12T01:29:36.423Z,6.07
2019-02-12T01:32:04.944Z,6.73
2019-02-12T01:34:33.364Z,6.77
2019-02-12T01:37:01.787Z,7.70
2019-02-12T01:39:30.197Z,5.77
2019-02-12T01:41:58.617Z,5.87
2019-02-12T01:44:27.035Z,4.97
2019-02-12T01:46:55.458Z,5.03
2019-02-12T01:49:23.857Z,6.20
2019-02-12T01:51:52.281Z,6.53
2019-02-12T01:54:20.707Z,5.50
2019-02-12T01:56:49.121Z,5.73
2019-02-12T01:59:17.524Z,5.40
2019-02-12T02:01:45.943Z,5.27
2019-02-12T02:04:14.355Z,5.70
2019-02-12T02:06:42.768Z,5.17
2019-02-12T02:09:11.463Z,5.03
2019-02-12T02:11:39.892Z,4.63
2019-02-12T02:14:08.292Z,5.60
2019-02-12T02:16:36.780Z,5.90
2019-02-12T02:19:05.195Z,5.90
2019-02-12T02:21:33.618Z,6.73
2019-02-12T02:24:02.021Z,6.73
2019-02-12T02:26:30.448Z,6.57
2019-02-12T02:28:58.864Z,7.00
2019-02-12T02:31:27.280Z,5.77
2019-02-12T02:33:56.152Z,7.57
2019-02-12T02:36:24.599Z,5.80
2019-02-12T02:38:53.008Z,5.33
2019-02-12T02:41:21.417Z,7.07
2019-02-12T02:43:49.825Z,6.40
2019-02-12T02:46:18.251Z,5.93
2019-02-12T02:48:46.672Z,5.60
2019-02-12T02:51:15.106Z,6.30
2019-02-12T02:53:43.497Z,6.60
2019-02-12T02:56:11.918Z,5.83
2019-02-12T02:58:40.334Z,6.33
2019-02-12T03:01:08.743Z,5.77
2019-02-12T03:03:37.164Z,6.27
2019-02-12T03:06:05.600Z,6.30
2019-02-12T03:08:34.023Z,5.33
2019-02-12T03:11:02.437Z,6.80
2019-02-12T03:13:30.922Z,7.37
2019-02-12T03:16:00.329Z,6.03
2019-02-12T03:18:28.772Z,7.80
2019-02-12T03:20:57.200Z,8.97
2019-02-12T03:23:25.609Z,7.40
2019-02-12T03:25:54.040Z,9.30
2019-02-12T03:28:22.464Z,7.63
2019-02-12T03:30:50.884Z,10.90
2019-02-12T03:33:19.393Z,10.10
2019-02-12T03:35:47.817Z,7.83
2019-02-12T03:38:17.731Z,8.40
2019-02-12T03:40:46.134Z,7.70
2019-02-12T03:43:14.579Z,8.17
2019-02-12T03:45:42.977Z,6.70
2019-02-12T03:48:11.440Z,6.63
2019-02-12T03:50:39.856Z,6.23
2019-02-12T03:53:08.284Z,6.80
2019-02-12T03:55:36.710Z,5.70
2019-02-12T03:58:05.234Z,6.67
2019-02-12T04:00:33.826Z,5.97
2019-02-12T04:03:04.372Z,5.50
2019-02-12T04:05:33.328Z,7.03
2019-02-12T04:08:02.089Z,6.77
2019-02-12T04:10:30.558Z,5.27
2019-02-12T04:12:59.195Z,45.43
2019-02-12T04:15:27.708Z,4.77
2019-02-12T04:17:56.193Z,6.73
2019-02-12T04:20:24.713Z,4.80
2019-02-12T04:22:53.164Z,4.93
2019-02-12T04:25:21.655Z,6.00
2019-02-12T04:27:50.107Z,5.10
2019-02-12T04:30:18.576Z,5.17
2019-02-12T04:32:46.982Z,4.87
2019-02-12T04:35:15.485Z,5.83
2019-02-12T04:37:43.981Z,5.70
2019-02-12T04:40:12.509Z,5.10
2019-02-12T04:42:40.923Z,6.07
2019-02-12T04:45:11.222Z,5.70
2019-02-12T04:47:39.634Z,5.67
2019-02-12T04:50:13.340Z,5.50
2019-02-12T04:52:41.746Z,4.73
2019-02-12T04:55:11.645Z,4.97
2019-02-12T04:57:40.076Z,4.83
2019-02-12T05:00:14.212Z,5.40
2019-02-12T05:02:42.666Z,5.50
2019-02-12T05:05:11.241Z,5.43
2019-02-12T05:07:39.677Z,5.00
2019-02-12T05:10:14.171Z,6.20
2019-02-12T05:12:42.599Z,4.90
2019-02-12T05:15:11.013Z,5.80
2019-02-12T05:17:39.441Z,4.87
2019-02-12T05:20:11.074Z,7.30
2019-02-12T05:22:43.594Z,7.73
2019-02-12T05:25:10.181Z,6.00
2019-02-12T05:27:38.719Z,5.60
2019-02-12T05:30:10.386Z,5.70
2019-02-12T05:32:38.805Z,6.27
2019-02-12T05:35:07.664Z,6.10
2019-02-12T05:37:36.074Z,6.50
2019-02-12T05:40:07.246Z,6.40
2019-02-12T05:42:35.666Z,6.20
2019-02-12T05:45:06.508Z,6.63
2019-02-12T05:47:34.921Z,6.43
2019-02-12T05:50:03.361Z,6.13
2019-02-12T05:52:31.797Z,6.20
2019-02-12T05:55:00.412Z,6.10
2019-02-12T05:57:28.904Z,6.87
2019-02-12T05:59:57.336Z,6.30
2019-02-12T06:02:25.783Z,5.73
2019-02-12T06:04:54.273Z,5.80
2019-02-12T06:07:22.676Z,7.50
2019-02-12T06:09:51.124Z,6.53
2019-02-12T06:12:19.558Z,6.10
2019-02-12T06:14:48.020Z,6.87
2019-02-12T06:17:16.461Z,6.70
2019-02-12T06:19:44.871Z,6.63
2019-02-12T06:22:13.297Z,8.07
2019-02-12T06:24:41.712Z,5.73
2019-02-12T06:27:11.036Z,6.23
2019-02-12T06:29:39.460Z,6.13
2019-02-12T06:32:07.887Z,6.30
2019-02-12T06:34:36.300Z,8.73
2019-02-12T06:37:04.708Z,7.20
2019-02-12T06:39:33.132Z,7.90
2019-02-12T06:42:01.538Z,6.03
2019-02-12T06:44:29.975Z,7.20
2019-02-12T06:46:58.378Z,6.80
2019-02-12T06:49:26.805Z,6.73
2019-02-12T06:51:55.201Z,6.83
2019-02-12T06:54:23.645Z,7.20
2019-02-12T06:56:52.056Z,6.37
2019-02-12T06:59:20.491Z,8.17
2019-02-12T07:01:48.915Z,8.30
2019-02-12T07:04:17.515Z,7.27
2019-02-12T07:07:04.135Z,7.90
2019-02-12T07:09:35.630Z,7.70
2019-02-12T07:12:28.273Z,5.87
2019-02-12T07:15:17.576Z,7.13
2019-02-12T07:18:04.052Z,7.90
2019-02-12T07:20:35.557Z,6.73
2019-02-12T07:23:07.042Z,7.00
2019-02-12T07:25:55.122Z,7.50
2019-02-12T07:28:44.789Z,7.40
2019-02-12T07:31:41.917Z,9.73
2019-02-12T07:34:24.896Z,7.80
2019-02-12T07:37:11.185Z,8.47
2019-02-12T07:39:54.720Z,8.00
2019-02-12T07:42:44.492Z,7.80
2019-02-12T07:45:18.896Z,8.23
2019-02-12T07:47:59.374Z,6.90
2019-02-12T07:50:47.658Z,9.33
2019-02-12T07:53:30.595Z,8.33
2019-02-12T07:56:21.159Z,7.53
2019-02-12T07:58:55.190Z,9.60
2019-02-12T08:01:26.677Z,6.53
2019-02-12T08:04:00.994Z,7.00
2019-02-12T08:06:47.639Z,6.20
2019-02-12T08:09:41.683Z,7.90
2019-02-12T08:12:19.151Z,7.20
2019-02-12T08:15:02.820Z,6.17
2019-02-12T08:17:53.756Z,5.70
2019-02-12T08:20:39.875Z,6.80
2019-02-12T08:23:20.413Z,7.07
2019-02-12T08:26:00.502Z,6.50
2019-02-12T08:28:47.265Z,6.60
2019-02-12T08:31:27.597Z,6.27
2019-02-12T08:34:26.540Z,6.40
2019-02-12T08:37:12.913Z,6.17
2019-02-12T08:40:01.237Z,5.90
2019-02-12T08:42:32.793Z,5.03
2019-02-12T08:45:22.401Z,5.90
2019-02-12T08:47:59.668Z,14.30
2019-02-12T08:50:49.307Z,35.70
2019-02-12T08:53:23.780Z,42.73
2019-02-12T08:56:01.311Z,53.03
2019-02-12T08:58:32.796Z,17.53
2019-02-12T09:01:25.039Z,12.87
2019-02-12T09:04:15.485Z,4.77
2019-02-12T09:06:52.941Z,4.73
2019-02-12T09:09:47.204Z,5.07
2019-02-12T09:12:30.634Z,4.73
2019-02-12T09:15:10.749Z,3.53
2019-02-12T09:18:05.022Z,5.10
2019-02-12T09:20:59.311Z,8.53
2019-02-12T09:23:47.504Z,4.70
2019-02-12T09:26:21.880Z,3.27
2019-02-12T09:29:15.999Z,3.80
2019-02-12T09:32:16.316Z,3.47
2019-02-12T09:34:50.679Z,3.47
2019-02-12T09:37:34.108Z,3.77
2019-02-12T09:40:19.164Z,3.43
2019-02-12T09:42:53.673Z,2.90
2019-02-12T09:45:34.220Z,3.33
2019-02-12T09:48:20.463Z,3.63
2019-02-12T09:51:01.667Z,3.00
2019-02-12T09:53:48.324Z,3.30
2019-02-12T09:56:34.976Z,3.30
2019-02-12T09:59:18.238Z,3.60
2019-02-12T10:01:58.625Z,3.70
2019-02-12T10:04:45.369Z,3.20
2019-02-12T10:07:23.036Z,3.00
2019-02-12T10:10:13.601Z,2.87
2019-02-12T10:12:45.071Z,2.67
2019-02-12T10:15:31.493Z,3.93
2019-02-12T10:18:11.745Z,2.90
2019-02-12T10:21:01.146Z,2.87
2019-02-12T10:23:53.804Z,3.00
2019-02-12T10:26:31.252Z,3.80
2019-02-12T10:29:17.159Z,5.70
2019-02-12T10:31:44.567Z,3.83
2019-02-12T10:34:13.144Z,8.83
2019-02-12T10:36:41.954Z,3.97
2019-02-12T10:39:10.898Z,4.63
2019-02-12T10:41:39.293Z,3.43
2019-02-12T10:44:07.733Z,2.17
2019-02-12T10:46:36.457Z,4.40
2019-02-12T10:49:04.869Z,2.13
2019-02-12T10:51:33.279Z,1.70
2019-02-12T10:54:01.714Z,2.00
2019-02-12T10:56:30.112Z,8.40
2019-02-12T10:58:58.537Z,10.00
2019-02-12T11:01:28.028Z,10.57
2019-02-12T11:03:56.469Z,4.10
2019-02-12T11:06:24.897Z,7.53
2019-02-12T11:08:53.324Z,39.00
2019-02-12T11:11:21.717Z,2.87
2019-02-12T11:13:50.187Z,2.53
2019-02-12T11:16:18.673Z,4.40
2019-02-12T11:18:47.123Z,2.87
2019-02-12T11:21:15.688Z,2.70
2019-02-12T11:23:44.228Z,5.90
2019-02-12T11:26:12.692Z,5.87
2019-02-12T11:28:41.352Z,5.87
2019-02-12T11:31:09.768Z,2.80
2019-02-12T11:33:38.173Z,3.00
2019-02-12T11:36:06.581Z,3.60
2019-02-12T11:38:34.977Z,2.90
2019-02-12T11:41:03.404Z,2.30
2019-02-12T11:43:31.805Z,2.50
2019-02-12T11:46:00.256Z,3.23
2019-02-12T11:48:28.659Z,2.20
2019-02-12T11:50:57.072Z,2.10
2019-02-12T11:53:25.490Z,2.70
2019-02-12T11:55:53.926Z,2.00
2019-02-12T11:58:22.316Z,2.13
2019-02-12T12:00:52.372Z,1.93
2019-02-12T12:03:20.769Z,2.10
2019-02-12T12:05:49.184Z,2.53
2019-02-12T12:08:17.591Z,3.83
2019-02-12T12:10:46.003Z,3.10
2019-02-12T12:13:14.414Z,2.20
2019-02-12T12:15:42.826Z,1.87
2019-02-12T12:18:11.257Z,4.27
2019-02-12T12:20:39.682Z,3.67
2019-02-12T12:23:08.106Z,9.83
2019-02-12T12:25:36.547Z,25.30
2019-02-12T12:28:04.937Z,11.77
2019-02-12T12:30:33.426Z,7.70
2019-02-12T12:33:01.832Z,19.60
2019-02-12T12:35:30.268Z,8.17
2019-02-12T12:37:58.763Z,2.73
2019-02-12T12:40:27.173Z,2.80
2019-02-12T12:42:55.568Z,3.97
2019-02-12T12:45:23.984Z,3.10
2019-02-12T12:47:52.414Z,4.00
2019-02-12T12:50:20.849Z,2.93
2019-02-12T12:52:49.247Z,2.63
2019-02-12T12:55:17.665Z,4.90
2019-02-12T12:57:46.085Z,3.57
2019-02-12T13:00:16.294Z,5.30
2019-02-12T13:02:44.691Z,5.73
2019-02-12T13:05:13.182Z,4.23
2019-02-12T13:07:41.584Z,3.67
2019-02-12T13:10:12.740Z,6.30
2019-02-12T13:12:41.154Z,3.43
2019-02-12T13:15:11.808Z,5.37
2019-02-12T13:17:40.273Z,3.27
2019-02-12T13:20:11.190Z,2.63
2019-02-12T13:22:39.609Z,3.13
2019-02-12T13:25:09.263Z,3.50
2019-02-12T13:27:37.690Z,4.47
2019-02-12T13:30:14.939Z,3.20
2019-02-12T13:32:43.367Z,5.50
2019-02-12T13:35:12.401Z,3.20
2019-02-12T13:37:40.826Z,2.47
2019-02-12T13:40:13.565Z,2.53
2019-02-12T13:42:42.133Z,2.83
2019-02-12T13:45:16.347Z,4.43
2019-02-12T13:47:44.870Z,3.10
2019-02-12T13:50:13.871Z,5.93
2019-02-12T13:52:42.289Z,4.93
2019-02-12T13:55:17.057Z,2.90
2019-02-12T13:57:41.577Z,2.87
2019-02-12T14:00:13.315Z,5.40
2019-02-12T14:02:41.721Z,9.03
2019-02-12T14:05:12.956Z,3.13
2019-02-12T14:07:41.421Z,3.70
2019-02-12T14:10:09.962Z,22.57
2019-02-12T14:12:38.399Z,11.80
2019-02-12T14:15:09.865Z,42.70
2019-02-12T14:17:38.286Z,24.50
2019-02-12T14:20:11.986Z,4.80
2019-02-12T14:22:40.533Z,12.00
2019-02-12T14:25:13.752Z,63.63
2019-02-12T14:27:42.382Z,31.53
2019-02-12T14:30:19.161Z,12.50
2019-02-12T14:32:47.577Z,12.23
2019-02-12T14:35:16.004Z,7.23
2019-02-12T14:37:44.425Z,10.53
2019-02-12T14:40:14.285Z,4.10
2019-02-12T14:42:42.725Z,5.63
2019-02-12T14:45:16.012Z,3.50
2019-02-12T14:47:44.446Z,12.73
2019-02-12T14:50:15.920Z,2.37
2019-02-12T14:52:44.341Z,7.43
2019-02-12T14:55:12.756Z,4.10
2019-02-12T14:57:41.177Z,3.00
2019-02-12T15:00:14.522Z,8.53
2019-02-12T15:02:42.934Z,4.07
2019-02-12T15:05:11.461Z,4.03
2019-02-12T15:07:39.891Z,4.37
2019-02-12T15:10:15.273Z,4.30
2019-02-12T15:12:43.708Z,3.20
2019-02-12T15:15:12.359Z,6.50
2019-02-12T15:17:40.776Z,5.57
2019-02-12T15:20:12.841Z,5.10
2019-02-12T15:22:41.324Z,3.90
2019-02-12T15:25:10.861Z,3.47
2019-02-12T15:27:39.286Z,3.93
2019-02-12T15:30:13.478Z,3.13
2019-02-12T15:32:42.940Z,2.60
2019-02-12T15:35:11.804Z,2.70
2019-02-12T15:37:40.226Z,3.50
2019-02-12T15:40:11.165Z,2.90
2019-02-12T15:42:39.577Z,2.60
2019-02-12T15:45:11.098Z,3.23
2019-02-12T15:47:39.512Z,2.77
2019-02-12T15:50:10.256Z,3.60
2019-02-12T15:52:38.688Z,3.10
2019-02-12T15:55:09.843Z,3.07
2019-02-12T15:57:40.289Z,3.40
2019-02-12T16:00:20.922Z,3.93
2019-02-12T16:02:49.371Z,3.30
2019-02-12T16:05:17.769Z,3.57
2019-02-12T16:07:47.440Z,3.53
2019-02-12T16:10:20.104Z,2.83
2019-02-12T16:12:49.405Z,3.50
2019-02-12T16:15:21.862Z,2.63
2019-02-12T16:17:49.832Z,2.60
2019-02-12T16:20:18.288Z,3.20
2019-02-12T16:22:46.723Z,3.30
2019-02-12T16:25:15.555Z,3.17
2019-02-12T16:27:44.149Z,3.20
2019-02-12T16:30:19.532Z,3.37
2019-02-12T16:32:47.936Z,3.70
2019-02-12T16:35:17.301Z,3.57
2019-02-12T16:37:45.731Z,3.60
2019-02-12T16:40:15.179Z,3.20
2019-02-12T16:42:43.664Z,3.30
2019-02-12T16:45:27.246Z,2.53
2019-02-12T16:47:55.708Z,3.07
2019-02-12T16:50:24.119Z,3.00
2019-02-12T16:52:52.547Z,3.07
2019-02-12T16:55:21.097Z,6.37
2019-02-12T16:57:49.527Z,15.33
2019-02-12T17:00:18.274Z,17.73
2019-02-12T17:02:46.850Z,24.60
2019-02-12T17:05:15.680Z,47.60
2019-02-12T17:07:45.139Z,31.90
2019-02-12T17:10:14.215Z,63.60
2019-02-12T17:12:42.756Z,58.40
2019-02-12T17:15:12.635Z,69.00
2019-02-12T17:17:41.055Z,32.13
2019-02-12T17:20:23.982Z,51.50
2019-02-12T17:22:52.456Z,52.83
2019-02-12T17:25:20.917Z,43.47
2019-02-12T17:27:49.331Z,33.23
2019-02-12T17:30:18.488Z,7.20
2019-02-12T17:32:47.029Z,6.40
2019-02-12T17:35:15.468Z,5.70
2019-02-12T17:37:43.861Z,5.23
2019-02-12T17:40:16.950Z,9.30
2019-02-12T17:42:45.358Z,12.27
2019-02-12T17:45:15.892Z,4.63
2019-02-12T17:47:44.294Z,3.87
2019-02-12T17:50:14.072Z,4.27
2019-02-12T17:52:42.491Z,3.43
2019-02-12T17:55:11.575Z,4.50
2019-02-12T17:57:40.003Z,5.30
2019-02-12T18:00:15.844Z,5.13
2019-02-12T18:02:44.386Z,5.80
2019-02-12T18:05:12.994Z,5.00
2019-02-12T18:07:41.420Z,4.97
2019-02-12T18:10:11.150Z,5.20
2019-02-12T18:12:39.649Z,4.20
2019-02-12T18:15:12.829Z,3.87
2019-02-12T18:17:41.357Z,4.20
2019-02-12T18:20:17.253Z,4.70
2019-02-12T18:22:45.764Z,4.90
2019-02-12T18:25:14.260Z,9.47
2019-02-12T18:27:42.717Z,11.70
2019-02-12T18:30:15.834Z,14.13
2019-02-12T18:32:44.390Z,11.17
2019-02-12T18:35:12.989Z,6.53
2019-02-12T18:37:41.423Z,6.33
2019-02-12T18:40:17.279Z,7.63
2019-02-12T18:42:45.912Z,7.70
2019-02-12T18:45:22.263Z,7.23
2019-02-12T18:47:50.740Z,8.00
2019-02-12T18:50:19.241Z,11.70
2019-02-12T18:52:47.658Z,15.17
2019-02-12T18:55:16.617Z,10.03
2019-02-12T18:57:45.021Z,4.70
2019-02-12T19:00:21.233Z,4.07
2019-02-12T19:02:49.659Z,5.00
2019-02-12T19:05:18.188Z,3.73
2019-02-12T19:07:46.679Z,3.53
2019-02-12T19:10:18.840Z,3.40
2019-02-12T19:12:47.245Z,4.23
2019-02-12T19:15:20.056Z,3.90
2019-02-12T19:18:00.405Z,4.67
2019-02-12T19:20:28.900Z,3.87
2019-02-12T19:22:57.310Z,7.00
2019-02-12T19:25:25.729Z,5.30
2019-02-12T19:27:54.132Z,5.30
2019-02-12T19:30:22.552Z,4.90
2019-02-12T19:32:50.984Z,28.03
2019-02-12T19:35:19.408Z,5.90
2019-02-12T19:37:47.809Z,5.33
2019-02-12T19:40:16.239Z,4.17
2019-02-12T19:42:44.659Z,4.47
2019-02-12T19:45:15.506Z,6.70
2019-02-12T19:47:43.922Z,6.10
2019-02-12T19:50:12.509Z,10.50
2019-02-12T19:52:40.920Z,11.70
2019-02-12T19:55:10.186Z,11.27
2019-02-12T19:57:38.611Z,12.40
2019-02-12T20:00:14.156Z,9.60
2019-02-12T20:02:42.563Z,10.70
2019-02-12T20:05:11.850Z,8.80
2019-02-12T20:07:40.267Z,7.80
2019-02-12T20:10:14.077Z,14.20
2019-02-12T20:12:42.480Z,9.00
2019-02-12T20:15:19.529Z,8.50
2019-02-12T20:17:47.939Z,10.00
2019-02-12T20:20:18.367Z,10.93
2019-02-12T20:22:46.796Z,9.90
2019-02-12T20:25:15.239Z,9.50
2019-02-12T20:27:43.645Z,10.60
2019-02-12T20:30:14.300Z,7.70
2019-02-12T20:32:42.775Z,8.67
2019-02-12T20:35:13.141Z,22.13
2019-02-12T20:37:41.562Z,8.60
2019-02-12T20:40:12.127Z,7.27
2019-02-12T20:42:40.545Z,7.43
2019-02-12T20:45:14.358Z,6.20
2019-02-12T20:47:42.803Z,5.27
2019-02-12T20:50:13.996Z,6.70
2019-02-12T20:52:42.430Z,5.80
2019-02-12T20:55:11.288Z,7.67
2019-02-12T20:57:39.799Z,9.07
2019-02-12T21:00:17.148Z,6.90
2019-02-12T21:02:45.791Z,7.43
2019-02-12T21:05:15.657Z,7.40
2019-02-12T21:07:44.223Z,8.77
2019-02-12T21:10:14.773Z,6.93
2019-02-12T21:12:43.210Z,6.97
2019-02-12T21:15:23.117Z,6.90
2019-02-12T21:17:51.551Z,7.73
2019-02-12T21:20:19.960Z,7.10
2019-02-12T21:22:48.389Z,7.67
2019-02-12T21:25:16.948Z,7.20
2019-02-12T21:27:45.379Z,7.10
2019-02-12T21:30:19.619Z,8.13
2019-02-12T21:32:48.031Z,5.57
2019-02-12T21:35:16.449Z,6.77
2019-02-12T21:37:44.874Z,5.90
2019-02-12T21:40:24.340Z,6.10
2019-02-12T21:42:52.758Z,5.63
2019-02-12T21:45:21.243Z,11.17
2019-02-12T21:47:49.660Z,7.00
2019-02-12T21:50:18.096Z,5.33
2019-02-12T21:52:46.516Z,7.07
2019-02-12T21:55:17.342Z,7.23
2019-02-12T21:57:45.834Z,6.17
2019-02-12T22:00:16.279Z,8.00
2019-02-12T22:02:44.692Z,6.77
2019-02-12T22:05:14.537Z,6.23
2019-02-12T22:07:42.992Z,7.93
2019-02-12T22:10:14.011Z,7.40
2019-02-12T22:12:42.432Z,6.33
2019-02-12T22:15:11.880Z,9.07
2019-02-12T22:17:41.463Z,7.20
2019-02-12T22:20:12.037Z,8.17
2019-02-12T22:22:40.492Z,8.37
2019-02-12T22:25:09.942Z,7.13
2019-02-12T22:27:40.467Z,7.97
2019-02-12T22:30:17.020Z,7.73
2019-02-12T22:32:45.450Z,9.93
2019-02-12T22:35:14.663Z,8.40
2019-02-12T22:37:43.478Z,8.17
2019-02-12T22:40:13.846Z,9.40
2019-02-12T22:42:42.265Z,7.97
2019-02-12T22:45:13.210Z,7.53
2019-02-12T22:47:41.642Z,8.10
2019-02-12T22:50:11.485Z,7.80
2019-02-12T22:52:39.995Z,7.93
2019-02-12T22:55:09.856Z,7.77
2019-02-12T22:57:38.335Z,8.27
2019-02-12T23:00:44.885Z,9.20
2019-02-12T23:03:13.448Z,8.50
2019-02-12T23:05:41.924Z,9.20
2019-02-12T23:08:10.420Z,10.40
2019-02-12T23:10:38.827Z,9.80
2019-02-12T23:13:07.521Z,9.67
2019-02-12T23:15:36.137Z,11.60
2019-02-12T23:18:04.650Z,12.17
2019-02-12T23:20:33.048Z,14.97
2019-02-12T23:23:01.510Z,15.73
2019-02-12T23:25:29.925Z,15.07
2019-02-12T23:27:58.351Z,12.90
2019-02-12T23:30:26.785Z,8.33
2019-02-12T23:32:55.577Z,10.20
2019-02-12T23:35:23.985Z,12.30
2019-02-12T23:37:52.428Z,12.83
2019-02-12T23:40:20.828Z,9.00
2019-02-12T23:42:49.277Z,12.90
2019-02-12T23:45:17.676Z,11.77
2019-02-12T23:47:46.120Z,12.80
2019-02-12T23:50:14.519Z,11.87
2019-02-12T23:52:42.956Z,11.23
2019-02-12T23:55:11.369Z,10.98
2019-02-12T23:57:39.812Z,13.60
